sensor_id;sensor_type;location;lat;lon;timestamp;pressure;altitude;pressure_sealevel;temperature;humidity
31005;BME280;17676;52.254;4.490;2023-04-22T00:02:10;100715.81;;;10.33;100.00
31005;BME280;17676;52.254;4.490;2023-04-22T00:04:39;100709.38;;;10.34;100.00
31005;BME280;17676;52.254;4.490;2023-04-22T00:07:06;100704.19;;;10.26;100.00
31005;BME280;17676;52.254;4.490;2023-04-22T00:09:32;100712.09;;;10.21;100.00
31005;BME280;17676;52.254;4.490;2023-04-22T00:11:57;100716.66;;;10.21;100.00
31005;BME280;17676;52.254;4.490;2023-04-22T00:14:23;100700.25;;;10.09;100.00
31005;BME280;17676;52.254;4.490;2023-04-22T00:16:49;100706.66;;;10.08;100.00
31005;BME280;17676;52.254;4.490;2023-04-22T00:19:15;100707.31;;;10.10;100.00
31005;BME280;17676;52.254;4.490;2023-04-22T00:21:42;100691.47;;;9.87;100.00
31005;BME280;17676;52.254;4.490;2023-04-22T00:24:08;100711.22;;;10.01;100.00
31005;BME280;17676;52.254;4.490;2023-04-22T00:26:34;100707.88;;;9.99;100.00
31005;BME280;17676;52.254;4.490;2023-04-22T00:29:00;100699.59;;;9.94;100.00
31005;BME280;17676;52.254;4.490;2023-04-22T00:31:26;100690.22;;;9.90;100.00
31005;BME280;17676;52.254;4.490;2023-04-22T00:33:52;100686.28;;;9.86;100.00
31005;BME280;17676;52.254;4.490;2023-04-22T00:36:17;100691.47;;;9.81;100.00
31005;BME280;17676;52.254;4.490;2023-04-22T00:38:48;100687.91;;;9.74;100.00
31005;BME280;17676;52.254;4.490;2023-04-22T00:41:14;100695.19;;;9.67;100.00
31005;BME280;17676;52.254;4.490;2023-04-22T00:43:41;100702.47;;;9.73;100.00
31005;BME280;17676;52.254;4.490;2023-04-22T00:46:07;100701.63;;;9.59;100.00
31005;BME280;17676;52.254;4.490;2023-04-22T00:48:34;100705.34;;;9.52;100.00
31005;BME280;17676;52.254;4.490;2023-04-22T00:51:01;100709.06;;;9.51;100.00
31005;BME280;17676;52.254;4.490;2023-04-22T00:53:26;100706.56;;;9.49;100.00
31005;BME280;17676;52.254;4.490;2023-04-22T00:55:52;100702.88;;;9.50;100.00
31005;BME280;17676;52.254;4.490;2023-04-22T00:58:20;100706.38;;;9.51;100.00
31005;BME280;17676;52.254;4.490;2023-04-22T01:00:45;100709.72;;;9.46;100.00
31005;BME280;17676;52.254;4.490;2023-04-22T01:03:11;100706.16;;;9.46;100.00
31005;BME280;17676;52.254;4.490;2023-04-22T01:05:37;100711.94;;;9.30;100.00
31005;BME280;17676;52.254;4.490;2023-04-22T01:08:03;100704.19;;;9.14;100.00
31005;BME280;17676;52.254;4.490;2023-04-22T01:10:29;100710.41;;;9.08;100.00
31005;BME280;17676;52.254;4.490;2023-04-22T01:12:55;100705.63;;;9.10;100.00
31005;BME280;17676;52.254;4.490;2023-04-22T01:15:21;100700.69;;;9.20;100.00
31005;BME280;17676;52.254;4.490;2023-04-22T01:17:47;100693.19;;;9.09;100.00
31005;BME280;17676;52.254;4.490;2023-04-22T01:20:12;100711.81;;;9.04;100.00
31005;BME280;17676;52.254;4.490;2023-04-22T01:22:44;100690.66;;;9.01;100.00
31005;BME280;17676;52.254;4.490;2023-04-22T01:25:11;100713.56;;;9.18;100.00
31005;BME280;17676;52.254;4.490;2023-04-22T01:27:38;100714.81;;;9.22;100.00
31005;BME280;17676;52.254;4.490;2023-04-22T01:30:06;100704.19;;;9.14;100.00
31005;BME280;17676;52.254;4.490;2023-04-22T01:32:32;100700.28;;;9.23;100.00
31005;BME280;17676;52.254;4.490;2023-04-22T01:34:58;100688.78;;;9.08;100.00
31005;BME280;17676;52.254;4.490;2023-04-22T01:37:24;100699.41;;;9.16;100.00
31005;BME280;17676;52.254;4.490;2023-04-22T01:39:52;100684.25;;;9.15;100.00
31005;BME280;17676;52.254;4.490;2023-04-22T01:42:18;100689.66;;;9.15;100.00
31005;BME280;17676;52.254;4.490;2023-04-22T01:44:45;100697.78;;;9.21;100.00
31005;BME280;17676;52.254;4.490;2023-04-22T01:47:11;100673.25;;;9.10;100.00
31005;BME280;17676;52.254;4.490;2023-04-22T01:49:37;100687.34;;;9.12;100.00
31005;BME280;17676;52.254;4.490;2023-04-22T01:52:04;100684.81;;;8.97;100.00
31005;BME280;17676;52.254;4.490;2023-04-22T01:54:31;100672.72;;;8.87;100.00
31005;BME280;17676;52.254;4.490;2023-04-22T01:56:57;100673.38;;;8.89;100.00
31005;BME280;17676;52.254;4.490;2023-04-22T01:59:23;100663.19;;;8.91;100.00
31005;BME280;17676;52.254;4.490;2023-04-22T02:01:49;100672.16;;;8.98;100.00
31005;BME280;17676;52.254;4.490;2023-04-22T02:04:15;100671.31;;;8.91;100.00
31005;BME280;17676;52.254;4.490;2023-04-22T02:06:40;100660.28;;;8.86;100.00
31005;BME280;17676;52.254;4.490;2023-04-22T02:09:06;100659.88;;;8.89;100.00
31005;BME280;17676;52.254;4.490;2023-04-22T02:11:32;100660.25;;;8.79;100.00
31005;BME280;17676;52.254;4.490;2023-04-22T02:13:57;100656.91;;;8.77;100.00
31005;BME280;17676;52.254;4.490;2023-04-22T02:16:23;100664.63;;;8.87;100.00
31005;BME280;17676;52.254;4.490;2023-04-22T02:18:48;100667.75;;;8.84;100.00
31005;BME280;17676;52.254;4.490;2023-04-22T02:21:14;100671.06;;;8.86;100.00
31005;BME280;17676;52.254;4.490;2023-04-22T02:23:40;100673.78;;;8.86;100.00
31005;BME280;17676;52.254;4.490;2023-04-22T02:26:06;100663.56;;;8.75;100.00
31005;BME280;17676;52.254;4.490;2023-04-22T02:28:32;100666.06;;;8.83;100.00
31005;BME280;17676;52.254;4.490;2023-04-22T02:30:58;100654.44;;;8.76;100.00
31005;BME280;17676;52.254;4.490;2023-04-22T02:33:24;100667.94;;;8.76;100.00
31005;BME280;17676;52.254;4.490;2023-04-22T02:35:49;100664.41;;;8.75;100.00
31005;BME280;17676;52.254;4.490;2023-04-22T02:38:15;100669.41;;;8.85;100.00
31005;BME280;17676;52.254;4.490;2023-04-22T02:40:41;100663.63;;;8.88;100.00
31005;BME280;17676;52.254;4.490;2023-04-22T02:43:07;100658.59;;;8.78;100.00
31005;BME280;17676;52.254;4.490;2023-04-22T02:45:33;100653.00;;;8.80;100.00
31005;BME280;17676;52.254;4.490;2023-04-22T02:47:58;100650.34;;;8.86;100.00
31005;BME280;17676;52.254;4.490;2023-04-22T02:50:24;100640.97;;;8.76;100.00
31005;BME280;17676;52.254;4.490;2023-04-22T02:52:50;100625.97;;;8.73;100.00
31005;BME280;17676;52.254;4.490;2023-04-22T02:55:15;100632.22;;;8.74;100.00
31005;BME280;17676;52.254;4.490;2023-04-22T02:57:41;100626.59;;;8.69;100.00
31005;BME280;17676;52.254;4.490;2023-04-22T03:00:07;100624.28;;;8.66;100.00
31005;BME280;17676;52.254;4.490;2023-04-22T03:02:35;100628.66;;;8.67;100.00
31005;BME280;17676;52.254;4.490;2023-04-22T03:05:01;100617.19;;;8.52;100.00
31005;BME280;17676;52.254;4.490;2023-04-22T03:07:27;100611.97;;;8.44;100.00
31005;BME280;17676;52.254;4.490;2023-04-22T03:09:53;100610.25;;;8.36;100.00
31005;BME280;17676;52.254;4.490;2023-04-22T03:12:20;100612.34;;;8.34;100.00
31005;BME280;17676;52.254;4.490;2023-04-22T03:14:46;100599.44;;;8.30;100.00
31005;BME280;17676;52.254;4.490;2023-04-22T03:17:12;100619.81;;;8.39;100.00
31005;BME280;17676;52.254;4.490;2023-04-22T03:19:37;100606.25;;;8.26;100.00
31005;BME280;17676;52.254;4.490;2023-04-22T03:22:03;100601.53;;;8.28;100.00
31005;BME280;17676;52.254;4.490;2023-04-22T03:24:28;100608.59;;;8.35;100.00
31005;BME280;17676;52.254;4.490;2023-04-22T03:26:54;100592.41;;;8.35;100.00
31005;BME280;17676;52.254;4.490;2023-04-22T03:29:20;100590.34;;;8.37;100.00
31005;BME280;17676;52.254;4.490;2023-04-22T03:31:46;100584.91;;;8.31;100.00
31005;BME280;17676;52.254;4.490;2023-04-22T03:34:11;100584.91;;;8.31;100.00
31005;BME280;17676;52.254;4.490;2023-04-22T03:36:37;100595.31;;;8.34;100.00
31005;BME280;17676;52.254;4.490;2023-04-22T03:39:03;100589.91;;;8.34;100.00
31005;BME280;17676;52.254;4.490;2023-04-22T03:41:29;100584.94;;;8.37;100.00
31005;BME280;17676;52.254;4.490;2023-04-22T03:43:55;100589.13;;;8.40;100.00
31005;BME280;17676;52.254;4.490;2023-04-22T03:46:21;100567.94;;;8.30;100.00
31005;BME280;17676;52.254;4.490;2023-04-22T03:48:47;100555.69;;;8.28;100.00
31005;BME280;17676;52.254;4.490;2023-04-22T03:51:12;100558.41;;;8.34;100.00
31005;BME280;17676;52.254;4.490;2023-04-22T03:53:38;100568.59;;;8.45;100.00
31005;BME280;17676;52.254;4.490;2023-04-22T03:56:04;100570.28;;;8.46;100.00
31005;BME280;17676;52.254;4.490;2023-04-22T03:58:31;100554.00;;;8.27;100.00
31005;BME280;17676;52.254;4.490;2023-04-22T04:00:57;100553.81;;;8.28;100.00
31005;BME280;17676;52.254;4.490;2023-04-22T04:03:23;100555.50;;;8.29;100.00
31005;BME280;17676;52.254;4.490;2023-04-22T04:05:52;100539.91;;;8.25;100.00
31005;BME280;17676;52.254;4.490;2023-04-22T04:08:18;100551.31;;;8.27;100.00
31005;BME280;17676;52.254;4.490;2023-04-22T04:10:47;100547.34;;;8.23;100.00
31005;BME280;17676;52.254;4.490;2023-04-22T04:13:13;100554.25;;;8.32;100.00
31005;BME280;17676;52.254;4.490;2023-04-22T04:15:40;100553.41;;;8.31;100.00
31005;BME280;17676;52.254;4.490;2023-04-22T04:18:05;100551.31;;;8.27;100.00
31005;BME280;17676;52.254;4.490;2023-04-22T04:20:32;100545.91;;;8.27;100.00
31005;BME280;17676;52.254;4.490;2023-04-22T04:23:00;100553.22;;;8.33;100.00
31005;BME280;17676;52.254;4.490;2023-04-22T04:25:26;100530.16;;;8.24;100.00
31005;BME280;17676;52.254;4.490;2023-04-22T04:27:53;100546.38;;;8.37;100.00
31005;BME280;17676;52.254;4.490;2023-04-22T04:30:19;100536.22;;;8.39;100.00
31005;BME280;17676;52.254;4.490;2023-04-22T04:32:45;100542.09;;;8.49;100.00
31005;BME280;17676;52.254;4.490;2023-04-22T04:35:11;100541.69;;;8.52;100.00
31005;BME280;17676;52.254;4.490;2023-04-22T04:37:39;100537.09;;;8.46;100.00
31005;BME280;17676;52.254;4.490;2023-04-22T04:40:05;100536.28;;;8.52;100.00
31005;BME280;17676;52.254;4.490;2023-04-22T04:42:32;100521.56;;;8.54;100.00
31005;BME280;17676;52.254;4.490;2023-04-22T04:44:58;100543.19;;;8.67;100.00
31005;BME280;17676;52.254;4.490;2023-04-22T04:47:24;100543.16;;;8.61;100.00
31005;BME280;17676;52.254;4.490;2023-04-22T04:49:50;100537.31;;;8.57;100.00
31005;BME280;17676;52.254;4.490;2023-04-22T04:52:18;100537.13;;;8.59;100.00
31005;BME280;17676;52.254;4.490;2023-04-22T04:54:45;100537.97;;;8.66;100.00
31005;BME280;17676;52.254;4.490;2023-04-22T04:57:12;100534.88;;;8.69;100.00
31005;BME280;17676;52.254;4.490;2023-04-22T04:59:38;100546.28;;;8.77;100.00
31005;BME280;17676;52.254;4.490;2023-04-22T05:02:04;100543.59;;;8.71;100.00
31005;BME280;17676;52.254;4.490;2023-04-22T05:04:30;100548.19;;;8.77;100.00
31005;BME280;17676;52.254;4.490;2023-04-22T05:06:58;100537.81;;;8.80;100.00
31005;BME280;17676;52.254;4.490;2023-04-22T05:09:23;100534.50;;;8.85;100.00
31005;BME280;17676;52.254;4.490;2023-04-22T05:11:49;100537.00;;;8.93;100.00
31005;BME280;17676;52.254;4.490;2023-04-22T05:14:14;100538.66;;;8.94;100.00
31005;BME280;17676;52.254;4.490;2023-04-22T05:16:40;100533.91;;;8.96;100.00
31005;BME280;17676;52.254;4.490;2023-04-22T05:19:06;100535.56;;;8.97;100.00
31005;BME280;17676;52.254;4.490;2023-04-22T05:21:31;100521.03;;;8.98;100.00
31005;BME280;17676;52.254;4.490;2023-04-22T05:23:57;100532.03;;;9.09;100.00
31005;BME280;17676;52.254;4.490;2023-04-22T05:26:23;100522.69;;;9.12;100.00
31005;BME280;17676;52.254;4.490;2023-04-22T05:28:50;100536.63;;;9.22;100.00
31005;BME280;17676;52.254;4.490;2023-04-22T05:31:16;100546.56;;;9.28;100.00
31005;BME280;17676;52.254;4.490;2023-04-22T05:33:42;100528.72;;;9.20;100.00
31005;BME280;17676;52.254;4.490;2023-04-22T05:36:08;100525.38;;;9.12;100.00
31005;BME280;17676;52.254;4.490;2023-04-22T05:38:34;100539.31;;;9.22;100.00
31005;BME280;17676;52.254;4.490;2023-04-22T05:41:00;100536.63;;;9.22;100.00
31005;BME280;17676;52.254;4.490;2023-04-22T05:43:26;100549.91;;;9.43;100.00
31005;BME280;17676;52.254;4.490;2023-04-22T05:45:51;100554.91;;;9.52;100.00
31005;BME280;17676;52.254;4.490;2023-04-22T05:48:17;100542.44;;;9.45;100.00
31005;BME280;17676;52.254;4.490;2023-04-22T05:50:42;100553.44;;;9.50;100.00
31005;BME280;17676;52.254;4.490;2023-04-22T05:53:09;100536.19;;;9.64;100.00
31005;BME280;17676;52.254;4.490;2023-04-22T05:55:34;100536.19;;;9.64;100.00
31005;BME280;17676;52.254;4.490;2023-04-22T05:58:01;100537.00;;;9.71;100.00
31005;BME280;17676;52.254;4.490;2023-04-22T06:00:27;100553.41;;;9.82;100.00
31005;BME280;17676;52.254;4.490;2023-04-22T06:02:53;100543.25;;;9.78;100.00
31005;BME280;17676;52.254;4.490;2023-04-22T06:05:21;100551.34;;;9.78;100.00
31005;BME280;17676;52.254;4.490;2023-04-22T06:07:47;100541.16;;;9.67;100.00
31005;BME280;17676;52.254;4.490;2023-04-22T06:10:16;100549.25;;;9.80;100.00
31005;BME280;17676;52.254;4.490;2023-04-22T06:12:42;100547.34;;;10.00;100.00
31005;BME280;17676;52.254;4.490;2023-04-22T06:15:09;100558.81;;;10.08;100.00
31005;BME280;17676;52.254;4.490;2023-04-22T06:17:35;100543.19;;;10.10;100.00
31005;BME280;17676;52.254;4.490;2023-04-22T06:20:03;100537.75;;;10.04;100.00
31005;BME280;17676;52.254;4.490;2023-04-22T06:22:31;100536.97;;;10.10;100.00
31005;BME280;17676;52.254;4.490;2023-04-22T06:24:58;100532.16;;;10.12;100.00
31005;BME280;17676;52.254;4.490;2023-04-22T06:27:23;100526.94;;;10.24;100.00
31005;BME280;17676;52.254;4.490;2023-04-22T06:29:51;100522.09;;;10.32;100.00
31005;BME280;17676;52.254;4.490;2023-04-22T06:32:16;100526.59;;;10.51;100.00
31005;BME280;17676;52.254;4.490;2023-04-22T06:34:42;100526.34;;;10.59;100.00
31005;BME280;17676;52.254;4.490;2023-04-22T06:37:07;100518.03;;;10.61;100.00
31005;BME280;17676;52.254;4.490;2023-04-22T06:39:33;100503.09;;;10.83;100.00
31005;BME280;17676;52.254;4.490;2023-04-22T06:41:59;100515.47;;;11.03;100.00
31005;BME280;17676;52.254;4.490;2023-04-22T06:44:26;100513.69;;;11.15;100.00
31005;BME280;17676;52.254;4.490;2023-04-22T06:46:51;100520.56;;;11.18;100.00
31005;BME280;17676;52.254;4.490;2023-04-22T06:49:17;100504.53;;;11.16;100.00
31005;BME280;17676;52.254;4.490;2023-04-22T06:51:43;100501.75;;;11.23;100.00
31005;BME280;17676;52.254;4.490;2023-04-22T06:54:10;100519.63;;;11.30;100.00
31005;BME280;17676;52.254;4.490;2023-04-22T06:56:45;100509.75;;;11.42;100.00
31005;BME280;17676;52.254;4.490;2023-04-22T06:59:19;100537.59;;;11.74;100.00
31005;BME280;17676;52.254;4.490;2023-04-22T07:01:46;100527.91;;;11.84;100.00
31005;BME280;17676;52.254;4.490;2023-04-22T07:04:14;100512.00;;;11.70;100.00
31005;BME280;17676;52.254;4.490;2023-04-22T07:06:41;100526.41;;;11.88;100.00
31005;BME280;17676;52.254;4.490;2023-04-22T07:09:08;100538.91;;;11.89;100.00
31005;BME280;17676;52.254;4.490;2023-04-22T07:11:34;100536.19;;;11.89;100.00
31005;BME280;17676;52.254;4.490;2023-04-22T07:14:10;100547.53;;;11.80;100.00
31005;BME280;17676;52.254;4.490;2023-04-22T07:16:45;100538.56;;;11.61;100.00
31005;BME280;17676;52.254;4.490;2023-04-22T07:19:11;100535.34;;;11.46;100.00
31005;BME280;17676;52.254;4.490;2023-04-22T07:21:37;100538.81;;;11.78;100.00
31005;BME280;17676;52.254;4.490;2023-04-22T07:24:03;100527.97;;;11.96;100.00
31005;BME280;17676;52.254;4.490;2023-04-22T07:26:29;100527.09;;;12.20;100.00
31005;BME280;17676;52.254;4.490;2023-04-22T07:28:58;100530.16;;;12.41;100.00
31005;BME280;17676;52.254;4.490;2023-04-22T07:31:25;100535.81;;;12.58;100.00
31005;BME280;17676;52.254;4.490;2023-04-22T07:33:54;100529.75;;;13.03;100.00
31005;BME280;17676;52.254;4.490;2023-04-22T07:36:20;100539.19;;;13.99;100.00
31005;BME280;17676;52.254;4.490;2023-04-22T07:38:45;100525.22;;;14.30;100.00
31005;BME280;17676;52.254;4.490;2023-04-22T07:41:11;100541.31;;;14.71;100.00
31005;BME280;17676;52.254;4.490;2023-04-22T07:43:36;100547.78;;;15.38;100.00
31005;BME280;17676;52.254;4.490;2023-04-22T07:46:04;100541.47;;;15.87;100.00
31005;BME280;17676;52.254;4.490;2023-04-22T07:48:32;100564.41;;;16.62;100.00
31005;BME280;17676;52.254;4.490;2023-04-22T07:50:57;100554.94;;;16.10;100.00
31005;BME280;17676;52.254;4.490;2023-04-22T07:53:23;100562.41;;;17.01;100.00
31005;BME280;17676;52.254;4.490;2023-04-22T07:55:49;100572.78;;;14.91;100.00
31005;BME280;17676;52.254;4.490;2023-04-22T07:58:15;100582.06;;;15.06;100.00
31005;BME280;17676;52.254;4.490;2023-04-22T08:00:41;100565.06;;;15.77;100.00
31005;BME280;17676;52.254;4.490;2023-04-22T08:03:06;100550.81;;;16.46;100.00
31005;BME280;17676;52.254;4.490;2023-04-22T08:05:32;100539.56;;;16.64;100.00
31005;BME280;17676;52.254;4.490;2023-04-22T08:07:58;100544.75;;;17.40;100.00
31005;BME280;17676;52.254;4.490;2023-04-22T08:10:23;100560.50;;;18.32;100.00
31005;BME280;17676;52.254;4.490;2023-04-22T08:12:49;100537.59;;;17.07;100.00
31005;BME280;17676;52.254;4.490;2023-04-22T08:15:15;100541.88;;;18.86;100.00
31005;BME280;17676;52.254;4.490;2023-04-22T08:17:41;100532.91;;;18.44;100.00
31005;BME280;17676;52.254;4.490;2023-04-22T08:20:07;100526.91;;;19.64;100.00
31005;BME280;17676;52.254;4.490;2023-04-22T08:22:33;100520.06;;;19.46;100.00
31005;BME280;17676;52.254;4.490;2023-04-22T08:25:00;100527.09;;;19.07;100.00
31005;BME280;17676;52.254;4.490;2023-04-22T08:27:26;100519.25;;;18.02;100.00
31005;BME280;17676;52.254;4.490;2023-04-22T08:29:51;100529.03;;;17.52;100.00
31005;BME280;17676;52.254;4.490;2023-04-22T08:32:17;100518.38;;;17.92;100.00
31005;BME280;17676;52.254;4.490;2023-04-22T08:34:45;100511.22;;;16.27;100.00
31005;BME280;17676;52.254;4.490;2023-04-22T08:37:11;100511.06;;;15.46;100.00
31005;BME280;17676;52.254;4.490;2023-04-22T08:39:37;100518.09;;;16.13;100.00
31005;BME280;17676;52.254;4.490;2023-04-22T08:42:07;100523.63;;;16.56;100.00
31005;BME280;17676;52.254;4.490;2023-04-22T08:44:40;100516.84;;;16.85;100.00
31005;BME280;17676;52.254;4.490;2023-04-22T08:47:08;100534.50;;;16.13;100.00
31005;BME280;17676;52.254;4.490;2023-04-22T08:49:42;100534.69;;;15.90;100.00
31005;BME280;17676;52.254;4.490;2023-04-22T08:52:10;100515.31;;;16.08;100.00
31005;BME280;17676;52.254;4.490;2023-04-22T08:54:37;100515.34;;;17.25;100.00
31005;BME280;17676;52.254;4.490;2023-04-22T08:57:07;100525.13;;;18.21;100.00
31005;BME280;17676;52.254;4.490;2023-04-22T08:59:34;100502.06;;;18.78;100.00
31005;BME280;17676;52.254;4.490;2023-04-22T09:02:10;100507.91;;;20.02;100.00
31005;BME280;17676;52.254;4.490;2023-04-22T09:04:41;100493.09;;;17.80;100.00
31005;BME280;17676;52.254;4.490;2023-04-22T09:07:08;100495.69;;;18.01;100.00
31005;BME280;17676;52.254;4.490;2023-04-22T09:09:39;100494.00;;;17.54;100.00
31005;BME280;17676;52.254;4.490;2023-04-22T09:12:06;100494.28;;;17.94;100.00
31005;BME280;17676;52.254;4.490;2023-04-22T09:14:45;100496.09;;;18.96;100.00
31005;BME280;17676;52.254;4.490;2023-04-22T09:17:44;100478.16;;;18.59;100.00
31005;BME280;17676;52.254;4.490;2023-04-22T09:20:10;100478.22;;;18.69;100.00
31005;BME280;17676;52.254;4.490;2023-04-22T09:22:52;100496.97;;;19.52;100.00
31005;BME280;17676;52.254;4.490;2023-04-22T09:25:23;100476.59;;;18.88;100.00
31005;BME280;17676;52.254;4.490;2023-04-22T09:27:55;100493.56;;;18.80;100.00
31005;BME280;17676;52.254;4.490;2023-04-22T09:30:34;100468.63;;;18.15;100.00
31005;BME280;17676;52.254;4.490;2023-04-22T09:33:06;100465.81;;;18.00;100.00
31005;BME280;17676;52.254;4.490;2023-04-22T09:35:38;100471.06;;;17.60;100.00
31005;BME280;17676;52.254;4.490;2023-04-22T09:38:06;100471.97;;;16.81;100.00
31005;BME280;17676;52.254;4.490;2023-04-22T09:40:37;100448.47;;;16.80;100.00
31005;BME280;17676;52.254;4.490;2023-04-22T09:43:07;100447.53;;;16.43;100.00
31005;BME280;17676;52.254;4.490;2023-04-22T09:45:34;100447.09;;;16.34;100.00
31005;BME280;17676;52.254;4.490;2023-04-22T09:48:16;100459.47;;;16.20;100.00
31005;BME280;17676;52.254;4.490;2023-04-22T09:50:47;100465.59;;;15.68;100.00
31005;BME280;17676;52.254;4.490;2023-04-22T09:53:15;100480.41;;;15.72;100.00
31005;BME280;17676;52.254;4.490;2023-04-22T09:55:44;100477.72;;;15.93;100.00
31005;BME280;17676;52.254;4.490;2023-04-22T09:58:14;100493.28;;;16.14;100.00
31005;BME280;17676;52.254;4.490;2023-04-22T10:00:47;100482.09;;;15.78;100.00
31005;BME280;17676;52.254;4.490;2023-04-22T10:03:13;100489.56;;;15.66;100.00
31005;BME280;17676;52.254;4.490;2023-04-22T10:05:39;100485.13;;;15.27;100.00
31005;BME280;17676;52.254;4.490;2023-04-22T10:08:08;100508.19;;;15.36;100.00
31005;BME280;17676;52.254;4.490;2023-04-22T10:10:36;100515.50;;;15.19;100.00
31005;BME280;17676;52.254;4.490;2023-04-22T10:13:02;100518.16;;;15.30;100.00
31005;BME280;17676;52.254;4.490;2023-04-22T10:15:33;100534.56;;;15.47;100.00
31005;BME280;17676;52.254;4.490;2023-04-22T10:18:09;100522.72;;;15.58;100.00
31005;BME280;17676;52.254;4.490;2023-04-22T10:20:39;100513.69;;;15.74;100.00
31005;BME280;17676;52.254;4.490;2023-04-22T10:23:10;100526.00;;;16.31;100.00
31005;BME280;17676;52.254;4.490;2023-04-22T10:25:39;100509.34;;;16.11;100.00
31005;BME280;17676;52.254;4.490;2023-04-22T10:28:09;100524.78;;;15.84;100.00
31005;BME280;17676;52.254;4.490;2023-04-22T10:30:37;100547.34;;;15.96;100.00
31005;BME280;17676;52.254;4.490;2023-04-22T10:41:34;100534.31;;;15.65;100.00
31005;BME280;17676;52.254;4.490;2023-04-22T10:44:04;100524.59;;;15.24;100.00
31005;BME280;17676;52.254;4.490;2023-04-22T10:49:09;100531.19;;;14.55;100.00
31005;BME280;17676;52.254;4.490;2023-04-22T10:51:55;100522.09;;;14.50;100.00
31005;BME280;17676;52.254;4.490;2023-04-22T10:59:40;100545.22;;;13.55;100.00
31005;BME280;17676;52.254;4.490;2023-04-22T11:02:24;100540.13;;;13.47;100.00
31005;BME280;17676;52.254;4.490;2023-04-22T11:05:23;100546.41;;;13.59;100.00
31005;BME280;17676;52.254;4.490;2023-04-22T11:07:54;100532.13;;;13.64;100.00
31005;BME280;17676;52.254;4.490;2023-04-22T11:10:35;100521.59;;;13.44;100.00
31005;BME280;17676;52.254;4.490;2023-04-22T11:13:06;100524.44;;;13.72;100.00
31005;BME280;17676;52.254;4.490;2023-04-22T11:15:31;100521.00;;;13.65;100.00
31005;BME280;17676;52.254;4.490;2023-04-22T11:17:59;100513.28;;;13.39;100.00
31005;BME280;17676;52.254;4.490;2023-04-22T11:20:25;100538.34;;;13.41;100.00
31005;BME280;17676;52.254;4.490;2023-04-22T11:22:56;100532.47;;;13.44;100.00
31005;BME280;17676;52.254;4.490;2023-04-22T11:25:23;100539.44;;;13.40;100.00
31005;BME280;17676;52.254;4.490;2023-04-22T11:27:50;100536.78;;;13.22;100.00
31005;BME280;17676;52.254;4.490;2023-04-22T11:30:22;100543.19;;;13.39;100.00
31005;BME280;17676;52.254;4.490;2023-04-22T11:33:13;100528.06;;;13.32;100.00
31005;BME280;17676;52.254;4.490;2023-04-22T11:35:39;100537.50;;;13.29;100.00
31005;BME280;17676;52.254;4.490;2023-04-22T11:38:08;100542.44;;;13.21;100.00
31005;BME280;17676;52.254;4.490;2023-04-22T11:40:38;100527.66;;;13.05;100.00
31005;BME280;17676;52.254;4.490;2023-04-22T11:43:14;100538.19;;;13.25;100.00
31005;BME280;17676;52.254;4.490;2023-04-22T11:45:47;100524.75;;;13.30;100.00
31005;BME280;17676;52.254;4.490;2023-04-22T11:48:19;100555.47;;;13.30;100.00
31005;BME280;17676;52.254;4.490;2023-04-22T11:50:48;100558.94;;;13.08;100.00
31005;BME280;17676;52.254;4.490;2023-04-22T11:53:20;100545.47;;;12.83;100.00
31005;BME280;17676;52.254;4.490;2023-04-22T11:55:50;100583.63;;;13.06;100.00
31005;BME280;17676;52.254;4.490;2023-04-22T11:58:18;100598.78;;;12.96;100.00
31005;BME280;17676;52.254;4.490;2023-04-22T12:00:49;100561.31;;;12.86;100.00
31005;BME280;17676;52.254;4.490;2023-04-22T12:03:24;100543.25;;;12.80;100.00
31005;BME280;17676;52.254;4.490;2023-04-22T12:05:54;100545.94;;;12.80;100.00
31005;BME280;17676;52.254;4.490;2023-04-22T12:08:47;100531.59;;;12.62;100.00
31005;BME280;17676;52.254;4.490;2023-04-22T12:11:14;100529.19;;;12.54;100.00
31005;BME280;17676;52.254;4.490;2023-04-22T12:13:42;100526.69;;;12.52;100.00
31005;BME280;17676;52.254;4.490;2023-04-22T12:16:28;100563.66;;;12.35;100.00
31005;BME280;17676;52.254;4.490;2023-04-22T12:18:56;100590.28;;;11.84;100.00
31005;BME280;17676;52.254;4.490;2023-04-22T12:21:25;100529.56;;;11.85;100.00
31005;BME280;17676;52.254;4.490;2023-04-22T12:24:00;100550.97;;;12.29;100.00
31005;BME280;17676;52.254;4.490;2023-04-22T12:26:35;100553.69;;;12.29;100.00
31005;BME280;17676;52.254;4.490;2023-04-22T12:29:08;100557.31;;;12.41;100.00
31005;BME280;17676;52.254;4.490;2023-04-22T12:31:36;100534.22;;;12.50;100.00
31005;BME280;17676;52.254;4.490;2023-04-22T12:34:02;100516.38;;;12.43;100.00
31005;BME280;17676;52.254;4.490;2023-04-22T12:36:29;100527.50;;;12.53;100.00
31005;BME280;17676;52.254;4.490;2023-04-22T12:38:56;100512.41;;;12.27;100.00
31005;BME280;17676;52.254;4.490;2023-04-22T12:41:22;100534.75;;;12.41;100.00
31005;BME280;17676;52.254;4.490;2023-04-22T12:43:48;100529.19;;;12.54;100.00
31005;BME280;17676;52.254;4.490;2023-04-22T12:46:15;100538.31;;;12.41;100.00
31005;BME280;17676;52.254;4.490;2023-04-22T12:48:41;100540.97;;;12.30;100.00
31005;BME280;17676;52.254;4.490;2023-04-22T12:51:07;100525.00;;;12.22;100.00
31005;BME280;17676;52.254;4.490;2023-04-22T12:53:33;100530.03;;;12.18;100.00
31005;BME280;17676;52.254;4.490;2023-04-22T12:56:07;100534.84;;;12.34;100.00
31005;BME280;17676;52.254;4.490;2023-04-22T12:58:46;100524.00;;;12.16;100.00
31005;BME280;17676;52.254;4.490;2023-04-22T13:01:12;100508.31;;;12.18;100.00
31005;BME280;17676;52.254;4.490;2023-04-22T13:03:52;100504.09;;;12.22;100.00
31005;BME280;17676;52.254;4.490;2023-04-22T13:06:22;100506.94;;;12.45;100.00